sensor_id;sensor_type;location;lat;lon;timestamp;P1;durP1;ratioP1;P2;durP2;ratioP2
22965;SDS011;11649;48.090;9.754;2022-12-07T00:02:13;10.50;;;8.38;;
22965;SDS011;11649;48.090;9.754;2022-12-07T00:04:40;10.25;;;8.10;;
22965;SDS011;11649;48.090;9.754;2022-12-07T00:07:07;10.77;;;8.23;;
22965;SDS011;11649;48.090;9.754;2022-12-07T00:09:33;11.82;;;8.55;;
22965;SDS011;11649;48.090;9.754;2022-12-07T00:12:00;10.65;;;8.52;;
22965;SDS011;11649;48.090;9.754;2022-12-07T00:14:27;10.35;;;8.18;;
22965;SDS011;11649;48.090;9.754;2022-12-07T00:16:53;9.45;;;7.75;;
22965;SDS011;11649;48.090;9.754;2022-12-07T00:19:20;10.73;;;7.93;;
22965;SDS011;11649;48.090;9.754;2022-12-07T00:21:47;10.13;;;7.97;;
22965;SDS011;11649;48.090;9.754;2022-12-07T00:24:13;10.52;;;8.07;;
22965;SDS011;11649;48.090;9.754;2022-12-07T00:26:40;10.35;;;8.07;;
22965;SDS011;11649;48.090;9.754;2022-12-07T00:29:13;11.30;;;8.48;;
22965;SDS011;11649;48.090;9.754;2022-12-07T00:31:43;10.45;;;8.23;;
22965;SDS011;11649;48.090;9.754;2022-12-07T00:34:14;10.60;;;8.52;;
22965;SDS011;11649;48.090;9.754;2022-12-07T00:36:43;11.32;;;8.68;;
22965;SDS011;11649;48.090;9.754;2022-12-07T00:39:10;10.38;;;8.15;;
22965;SDS011;11649;48.090;9.754;2022-12-07T00:41:37;10.18;;;7.97;;
22965;SDS011;11649;48.090;9.754;2022-12-07T00:44:04;11.43;;;9.05;;
22965;SDS011;11649;48.090;9.754;2022-12-07T00:46:30;11.23;;;8.30;;
22965;SDS011;11649;48.090;9.754;2022-12-07T00:48:57;13.20;;;8.77;;
22965;SDS011;11649;48.090;9.754;2022-12-07T00:51:24;10.10;;;8.25;;
22965;SDS011;11649;48.090;9.754;2022-12-07T00:53:51;10.48;;;8.43;;
22965;SDS011;11649;48.090;9.754;2022-12-07T00:56:20;9.88;;;8.10;;
22965;SDS011;11649;48.090;9.754;2022-12-07T00:59:01;10.07;;;7.78;;
22965;SDS011;11649;48.090;9.754;2022-12-07T01:01:30;10.20;;;8.15;;
22965;SDS011;11649;48.090;9.754;2022-12-07T01:03:59;11.98;;;7.95;;
22965;SDS011;11649;48.090;9.754;2022-12-07T01:06:27;9.90;;;7.90;;
22965;SDS011;11649;48.090;9.754;2022-12-07T01:08:55;10.30;;;8.20;;
22965;SDS011;11649;48.090;9.754;2022-12-07T01:11:23;10.55;;;7.90;;
22965;SDS011;11649;48.090;9.754;2022-12-07T01:13:52;10.35;;;7.85;;
22965;SDS011;11649;48.090;9.754;2022-12-07T01:16:21;10.25;;;7.55;;
22965;SDS011;11649;48.090;9.754;2022-12-07T01:18:50;10.32;;;7.95;;
22965;SDS011;11649;48.090;9.754;2022-12-07T01:21:25;11.02;;;8.10;;
22965;SDS011;11649;48.090;9.754;2022-12-07T01:23:53;10.38;;;8.30;;
22965;SDS011;11649;48.090;9.754;2022-12-07T01:26:21;12.50;;;8.35;;
22965;SDS011;11649;48.090;9.754;2022-12-07T01:28:49;9.95;;;7.60;;
22965;SDS011;11649;48.090;9.754;2022-12-07T01:31:17;11.27;;;8.23;;
22965;SDS011;11649;48.090;9.754;2022-12-07T01:33:48;10.68;;;7.93;;
22965;SDS011;11649;48.090;9.754;2022-12-07T01:36:17;12.50;;;8.32;;
22965;SDS011;11649;48.090;9.754;2022-12-07T01:38:51;11.93;;;8.05;;
22965;SDS011;11649;48.090;9.754;2022-12-07T01:41:24;11.25;;;8.05;;
22965;SDS011;11649;48.090;9.754;2022-12-07T01:46:48;9.80;;;7.40;;
22965;SDS011;11649;48.090;9.754;2022-12-07T01:49:23;10.73;;;8.35;;
22965;SDS011;11649;48.090;9.754;2022-12-07T01:52:01;12.30;;;8.10;;
22965;SDS011;11649;48.090;9.754;2022-12-07T01:54:39;9.57;;;7.45;;
22965;SDS011;11649;48.090;9.754;2022-12-07T01:57:07;9.30;;;7.32;;
22965;SDS011;11649;48.090;9.754;2022-12-07T01:59:35;9.57;;;7.60;;
22965;SDS011;11649;48.090;9.754;2022-12-07T02:02:02;10.02;;;7.55;;
22965;SDS011;11649;48.090;9.754;2022-12-07T02:04:33;10.82;;;8.20;;
22965;SDS011;11649;48.090;9.754;2022-12-07T02:07:02;11.00;;;8.88;;
22965;SDS011;11649;48.090;9.754;2022-12-07T02:09:30;10.85;;;8.18;;
22965;SDS011;11649;48.090;9.754;2022-12-07T02:11:57;9.30;;;7.50;;
22965;SDS011;11649;48.090;9.754;2022-12-07T02:14:24;10.77;;;7.80;;
22965;SDS011;11649;48.090;9.754;2022-12-07T02:19:45;11.43;;;7.93;;
22965;SDS011;11649;48.090;9.754;2022-12-07T02:28:04;11.68;;;8.38;;
22965;SDS011;11649;48.090;9.754;2022-12-07T02:30:40;11.48;;;8.30;;
22965;SDS011;11649;48.090;9.754;2022-12-07T02:33:15;12.07;;;8.35;;
22965;SDS011;11649;48.090;9.754;2022-12-07T02:41:20;10.70;;;8.05;;
22965;SDS011;11649;48.090;9.754;2022-12-07T02:43:57;10.77;;;7.38;;
22965;SDS011;11649;48.090;9.754;2022-12-07T02:46:33;9.30;;;7.60;;
22965;SDS011;11649;48.090;9.754;2022-12-07T02:49:04;10.48;;;8.25;;
22965;SDS011;11649;48.090;9.754;2022-12-07T02:51:33;10.60;;;7.47;;
22965;SDS011;11649;48.090;9.754;2022-12-07T02:54:00;9.48;;;7.70;;
22965;SDS011;11649;48.090;9.754;2022-12-07T03:07:05;11.13;;;8.60;;
22965;SDS011;11649;48.090;9.754;2022-12-07T03:09:52;11.07;;;7.65;;
22965;SDS011;11649;48.090;9.754;2022-12-07T03:12:37;10.02;;;7.90;;
22965;SDS011;11649;48.090;9.754;2022-12-07T03:15:14;10.77;;;7.70;;
22965;SDS011;11649;48.090;9.754;2022-12-07T03:17:50;12.90;;;8.43;;
22965;SDS011;11649;48.090;9.754;2022-12-07T03:20:18;10.82;;;8.15;;
22965;SDS011;11649;48.090;9.754;2022-12-07T03:22:48;10.23;;;7.82;;
22965;SDS011;11649;48.090;9.754;2022-12-07T03:25:17;12.20;;;8.07;;
22965;SDS011;11649;48.090;9.754;2022-12-07T03:27:58;10.70;;;8.40;;
22965;SDS011;11649;48.090;9.754;2022-12-07T03:30:33;11.40;;;8.88;;
22965;SDS011;11649;48.090;9.754;2022-12-07T03:33:12;11.85;;;8.35;;
22965;SDS011;11649;48.090;9.754;2022-12-07T03:36:28;10.00;;;7.90;;
22965;SDS011;11649;48.090;9.754;2022-12-07T03:38:52;10.93;;;8.45;;
22965;SDS011;11649;48.090;9.754;2022-12-07T03:41:29;11.07;;;8.07;;
22965;SDS011;11649;48.090;9.754;2022-12-07T03:44:00;9.43;;;7.80;;
22965;SDS011;11649;48.090;9.754;2022-12-07T03:46:30;11.00;;;8.25;;
22965;SDS011;11649;48.090;9.754;2022-12-07T03:49:04;10.32;;;7.90;;
22965;SDS011;11649;48.090;9.754;2022-12-07T03:54:44;11.57;;;8.30;;
22965;SDS011;11649;48.090;9.754;2022-12-07T03:57:11;11.23;;;8.38;;
22965;SDS011;11649;48.090;9.754;2022-12-07T03:59:39;10.75;;;8.07;;
22965;SDS011;11649;48.090;9.754;2022-12-07T04:02:08;10.48;;;8.15;;
22965;SDS011;11649;48.090;9.754;2022-12-07T04:04:39;9.75;;;7.53;;
22965;SDS011;11649;48.090;9.754;2022-12-07T04:07:06;11.30;;;8.50;;
22965;SDS011;11649;48.090;9.754;2022-12-07T04:09:33;10.15;;;7.90;;
22965;SDS011;11649;48.090;9.754;2022-12-07T04:11:59;10.05;;;7.80;;
22965;SDS011;11649;48.090;9.754;2022-12-07T04:14:26;10.00;;;7.97;;
22965;SDS011;11649;48.090;9.754;2022-12-07T04:16:54;12.07;;;8.45;;
22965;SDS011;11649;48.090;9.754;2022-12-07T04:19:25;12.48;;;8.50;;
22965;SDS011;11649;48.090;9.754;2022-12-07T04:21:54;10.52;;;8.43;;
22965;SDS011;11649;48.090;9.754;2022-12-07T04:24:22;14.05;;;9.73;;
22965;SDS011;11649;48.090;9.754;2022-12-07T04:26:49;11.85;;;9.18;;
22965;SDS011;11649;48.090;9.754;2022-12-07T04:29:17;12.82;;;8.73;;
22965;SDS011;11649;48.090;9.754;2022-12-07T04:31:45;10.90;;;8.40;;
22965;SDS011;11649;48.090;9.754;2022-12-07T04:34:13;11.32;;;7.72;;
22965;SDS011;11649;48.090;9.754;2022-12-07T04:36:40;11.18;;;8.25;;
22965;SDS011;11649;48.090;9.754;2022-12-07T04:39:08;10.00;;;7.90;;
22965;SDS011;11649;48.090;9.754;2022-12-07T04:41:45;10.80;;;7.80;;
22965;SDS011;11649;48.090;9.754;2022-12-07T04:44:11;10.95;;;7.95;;
22965;SDS011;11649;48.090;9.754;2022-12-07T04:46:41;10.95;;;8.48;;
22965;SDS011;11649;48.090;9.754;2022-12-07T04:49:08;10.85;;;8.07;;
22965;SDS011;11649;48.090;9.754;2022-12-07T04:51:36;12.38;;;9.25;;
22965;SDS011;11649;48.090;9.754;2022-12-07T04:54:03;12.95;;;8.45;;
22965;SDS011;11649;48.090;9.754;2022-12-07T04:56:30;11.60;;;8.15;;
22965;SDS011;11649;48.090;9.754;2022-12-07T04:58:57;10.77;;;8.35;;
22965;SDS011;11649;48.090;9.754;2022-12-07T05:01:24;11.30;;;8.00;;
22965;SDS011;11649;48.090;9.754;2022-12-07T05:03:51;9.70;;;7.60;;
22965;SDS011;11649;48.090;9.754;2022-12-07T05:06:19;15.65;;;9.63;;
22965;SDS011;11649;48.090;9.754;2022-12-07T05:08:46;15.60;;;10.77;;
22965;SDS011;11649;48.090;9.754;2022-12-07T05:11:13;10.15;;;8.00;;
22965;SDS011;11649;48.090;9.754;2022-12-07T05:14:02;10.73;;;8.00;;
22965;SDS011;11649;48.090;9.754;2022-12-07T05:16:40;10.55;;;8.18;;
22965;SDS011;11649;48.090;9.754;2022-12-07T05:19:08;10.20;;;8.05;;
22965;SDS011;11649;48.090;9.754;2022-12-07T05:21:35;11.18;;;8.93;;
22965;SDS011;11649;48.090;9.754;2022-12-07T05:24:03;10.52;;;8.00;;
22965;SDS011;11649;48.090;9.754;2022-12-07T05:26:31;10.77;;;8.63;;
22965;SDS011;11649;48.090;9.754;2022-12-07T05:28:58;12.23;;;9.05;;
22965;SDS011;11649;48.090;9.754;2022-12-07T05:31:25;10.98;;;8.40;;
22965;SDS011;11649;48.090;9.754;2022-12-07T05:33:53;11.57;;;9.20;;
22965;SDS011;11649;48.090;9.754;2022-12-07T05:36:20;10.43;;;8.40;;
22965;SDS011;11649;48.090;9.754;2022-12-07T05:38:46;11.45;;;8.95;;
22965;SDS011;11649;48.090;9.754;2022-12-07T05:41:17;12.18;;;9.07;;
22965;SDS011;11649;48.090;9.754;2022-12-07T05:44:04;12.10;;;8.75;;
22965;SDS011;11649;48.090;9.754;2022-12-07T05:46:31;11.52;;;8.48;;
22965;SDS011;11649;48.090;9.754;2022-12-07T05:48:58;9.75;;;7.63;;
22965;SDS011;11649;48.090;9.754;2022-12-07T05:51:25;12.57;;;8.05;;
22965;SDS011;11649;48.090;9.754;2022-12-07T05:53:52;10.82;;;8.10;;
22965;SDS011;11649;48.090;9.754;2022-12-07T05:56:19;11.82;;;8.60;;
22965;SDS011;11649;48.090;9.754;2022-12-07T05:58:46;9.93;;;7.95;;
22965;SDS011;11649;48.090;9.754;2022-12-07T06:01:31;11.10;;;8.38;;
22965;SDS011;11649;48.090;9.754;2022-12-07T06:03:59;11.65;;;8.23;;
22965;SDS011;11649;48.090;9.754;2022-12-07T06:06:26;9.77;;;8.00;;
22965;SDS011;11649;48.090;9.754;2022-12-07T06:08:53;14.18;;;8.80;;
22965;SDS011;11649;48.090;9.754;2022-12-07T06:11:19;11.02;;;8.45;;
22965;SDS011;11649;48.090;9.754;2022-12-07T06:14:05;13.38;;;8.93;;
22965;SDS011;11649;48.090;9.754;2022-12-07T06:16:31;9.88;;;8.10;;
22965;SDS011;11649;48.090;9.754;2022-12-07T06:18:59;10.77;;;8.40;;
22965;SDS011;11649;48.090;9.754;2022-12-07T06:21:25;11.30;;;9.13;;
22965;SDS011;11649;48.090;9.754;2022-12-07T06:23:52;13.38;;;9.50;;
22965;SDS011;11649;48.090;9.754;2022-12-07T06:26:19;14.13;;;10.43;;
22965;SDS011;11649;48.090;9.754;2022-12-07T06:28:47;12.27;;;8.77;;
22965;SDS011;11649;48.090;9.754;2022-12-07T06:31:13;12.65;;;9.23;;
22965;SDS011;11649;48.090;9.754;2022-12-07T06:33:40;12.20;;;8.73;;
22965;SDS011;11649;48.090;9.754;2022-12-07T06:36:07;12.02;;;9.35;;
22965;SDS011;11649;48.090;9.754;2022-12-07T06:38:35;17.30;;;10.82;;
22965;SDS011;11649;48.090;9.754;2022-12-07T06:41:01;16.80;;;11.75;;
22965;SDS011;11649;48.090;9.754;2022-12-07T06:43:28;14.48;;;10.32;;
22965;SDS011;11649;48.090;9.754;2022-12-07T06:45:56;16.92;;;12.43;;
22965;SDS011;11649;48.090;9.754;2022-12-07T06:48:22;19.17;;;14.60;;
22965;SDS011;11649;48.090;9.754;2022-12-07T06:50:49;16.38;;;12.10;;
22965;SDS011;11649;48.090;9.754;2022-12-07T06:53:20;14.45;;;10.57;;
22965;SDS011;11649;48.090;9.754;2022-12-07T06:55:47;17.85;;;11.63;;
22965;SDS011;11649;48.090;9.754;2022-12-07T06:58:14;18.27;;;14.20;;
22965;SDS011;11649;48.090;9.754;2022-12-07T07:00:41;16.02;;;11.80;;
22965;SDS011;11649;48.090;9.754;2022-12-07T07:03:08;14.88;;;11.05;;
22965;SDS011;11649;48.090;9.754;2022-12-07T07:05:35;15.90;;;11.68;;
22965;SDS011;11649;48.090;9.754;2022-12-07T07:08:02;15.02;;;11.18;;
22965;SDS011;11649;48.090;9.754;2022-12-07T07:10:49;13.27;;;9.82;;
22965;SDS011;11649;48.090;9.754;2022-12-07T07:13:16;16.15;;;10.45;;
22965;SDS011;11649;48.090;9.754;2022-12-07T07:15:42;17.30;;;11.43;;
22965;SDS011;11649;48.090;9.754;2022-12-07T07:18:09;20.27;;;13.43;;
22965;SDS011;11649;48.090;9.754;2022-12-07T07:20:36;17.35;;;11.52;;
22965;SDS011;11649;48.090;9.754;2022-12-07T07:23:04;17.30;;;10.60;;
22965;SDS011;11649;48.090;9.754;2022-12-07T07:25:31;18.23;;;12.48;;
22965;SDS011;11649;48.090;9.754;2022-12-07T07:27:59;15.38;;;11.23;;
22965;SDS011;11649;48.090;9.754;2022-12-07T07:30:25;16.95;;;11.75;;
22965;SDS011;11649;48.090;9.754;2022-12-07T07:33:02;16.88;;;11.63;;
22965;SDS011;11649;48.090;9.754;2022-12-07T07:35:31;24.40;;;15.32;;
22965;SDS011;11649;48.090;9.754;2022-12-07T07:37:59;26.73;;;16.63;;
22965;SDS011;11649;48.090;9.754;2022-12-07T07:40:26;16.10;;;11.10;;
22965;SDS011;11649;48.090;9.754;2022-12-07T07:42:55;14.85;;;9.98;;
22965;SDS011;11649;48.090;9.754;2022-12-07T07:45:23;13.13;;;9.05;;
22965;SDS011;11649;48.090;9.754;2022-12-07T07:47:51;16.80;;;12.02;;
22965;SDS011;11649;48.090;9.754;2022-12-07T07:50:18;16.65;;;11.85;;
22965;SDS011;11649;48.090;9.754;2022-12-07T07:52:45;21.25;;;15.48;;
22965;SDS011;11649;48.090;9.754;2022-12-07T07:55:13;40.97;;;24.85;;
22965;SDS011;11649;48.090;9.754;2022-12-07T07:57:40;19.73;;;14.57;;
22965;SDS011;11649;48.090;9.754;2022-12-07T08:00:08;21.95;;;14.88;;
22965;SDS011;11649;48.090;9.754;2022-12-07T08:02:39;25.70;;;17.92;;
22965;SDS011;11649;48.090;9.754;2022-12-07T08:05:09;15.82;;;11.50;;
22965;SDS011;11649;48.090;9.754;2022-12-07T08:07:38;40.10;;;26.58;;
22965;SDS011;11649;48.090;9.754;2022-12-07T08:10:05;24.73;;;19.30;;
22965;SDS011;11649;48.090;9.754;2022-12-07T08:12:35;16.60;;;11.98;;
22965;SDS011;11649;48.090;9.754;2022-12-07T08:15:04;21.00;;;14.00;;
22965;SDS011;11649;48.090;9.754;2022-12-07T08:17:31;16.95;;;13.02;;
22965;SDS011;11649;48.090;9.754;2022-12-07T08:19:59;16.52;;;12.05;;
22965;SDS011;11649;48.090;9.754;2022-12-07T08:22:26;15.85;;;10.98;;
22965;SDS011;11649;48.090;9.754;2022-12-07T08:24:53;17.42;;;12.68;;
22965;SDS011;11649;48.090;9.754;2022-12-07T08:27:20;14.75;;;10.15;;
22965;SDS011;11649;48.090;9.754;2022-12-07T08:29:49;16.58;;;11.40;;
22965;SDS011;11649;48.090;9.754;2022-12-07T08:32:17;13.50;;;10.38;;
22965;SDS011;11649;48.090;9.754;2022-12-07T08:34:44;14.73;;;10.63;;
22965;SDS011;11649;48.090;9.754;2022-12-07T08:37:11;17.13;;;11.25;;
22965;SDS011;11649;48.090;9.754;2022-12-07T08:39:38;14.73;;;10.68;;
22965;SDS011;11649;48.090;9.754;2022-12-07T08:42:04;15.68;;;10.90;;
22965;SDS011;11649;48.090;9.754;2022-12-07T08:44:31;14.77;;;10.25;;
22965;SDS011;11649;48.090;9.754;2022-12-07T08:46:58;13.10;;;9.63;;
22965;SDS011;11649;48.090;9.754;2022-12-07T08:49:31;16.73;;;10.38;;
22965;SDS011;11649;48.090;9.754;2022-12-07T08:52:10;12.60;;;9.63;;
22965;SDS011;11649;48.090;9.754;2022-12-07T08:54:38;20.00;;;13.90;;
22965;SDS011;11649;48.090;9.754;2022-12-07T08:57:06;16.67;;;12.10;;
22965;SDS011;11649;48.090;9.754;2022-12-07T08:59:34;15.93;;;11.43;;
22965;SDS011;11649;48.090;9.754;2022-12-07T09:02:04;14.93;;;10.85;;
22965;SDS011;11649;48.090;9.754;2022-12-07T09:04:31;16.20;;;11.15;;
22965;SDS011;11649;48.090;9.754;2022-12-07T09:06:58;16.00;;;11.60;;
22965;SDS011;11649;48.090;9.754;2022-12-07T09:09:25;15.73;;;11.15;;
22965;SDS011;11649;48.090;9.754;2022-12-07T09:11:52;17.80;;;11.45;;
22965;SDS011;11649;48.090;9.754;2022-12-07T09:14:19;19.60;;;14.20;;
22965;SDS011;11649;48.090;9.754;2022-12-07T09:16:46;19.00;;;12.85;;
22965;SDS011;11649;48.090;9.754;2022-12-07T09:19:13;16.38;;;12.40;;
22965;SDS011;11649;48.090;9.754;2022-12-07T09:21:39;18.40;;;12.50;;
22965;SDS011;11649;48.090;9.754;2022-12-07T09:24:06;18.90;;;12.50;;
22965;SDS011;11649;48.090;9.754;2022-12-07T09:26:33;18.05;;;11.88;;
22965;SDS011;11649;48.090;9.754;2022-12-07T09:29:02;15.55;;;10.85;;
22965;SDS011;11649;48.090;9.754;2022-12-07T09:31:29;16.90;;;11.77;;
22965;SDS011;11649;48.090;9.754;2022-12-07T09:33:57;17.38;;;11.45;;
22965;SDS011;11649;48.090;9.754;2022-12-07T09:36:26;16.88;;;12.02;;
22965;SDS011;11649;48.090;9.754;2022-12-07T09:38:54;16.25;;;11.43;;
22965;SDS011;11649;48.090;9.754;2022-12-07T09:41:21;20.33;;;13.23;;
22965;SDS011;11649;48.090;9.754;2022-12-07T09:43:50;18.05;;;12.23;;
22965;SDS011;11649;48.090;9.754;2022-12-07T09:46:18;16.55;;;11.02;;
22965;SDS011;11649;48.090;9.754;2022-12-07T09:48:46;18.10;;;11.07;;
22965;SDS011;11649;48.090;9.754;2022-12-07T09:51:18;18.63;;;11.80;;
22965;SDS011;11649;48.090;9.754;2022-12-07T09:53:50;18.33;;;12.05;;
22965;SDS011;11649;48.090;9.754;2022-12-07T09:56:18;18.25;;;12.48;;
22965;SDS011;11649;48.090;9.754;2022-12-07T09:58:46;17.77;;;12.35;;
22965;SDS011;11649;48.090;9.754;2022-12-07T10:01:15;16.88;;;11.40;;
22965;SDS011;11649;48.090;9.754;2022-12-07T10:06:14;16.85;;;12.15;;
22965;SDS011;11649;48.090;9.754;2022-12-07T10:08:41;16.17;;;12.07;;
22965;SDS011;11649;48.090;9.754;2022-12-07T10:11:09;16.27;;;11.90;;
22965;SDS011;11649;48.090;9.754;2022-12-07T10:13:38;16.10;;;11.82;;
22965;SDS011;11649;48.090;9.754;2022-12-07T10:18:51;15.45;;;11.75;;
22965;SDS011;11649;48.090;9.754;2022-12-07T10:21:24;15.90;;;11.25;;
22965;SDS011;11649;48.090;9.754;2022-12-07T10:26:33;33.85;;;21.55;;
22965;SDS011;11649;48.090;9.754;2022-12-07T10:29:14;20.17;;;14.35;;
22965;SDS011;11649;48.090;9.754;2022-12-07T10:31:44;15.52;;;11.98;;
22965;SDS011;11649;48.090;9.754;2022-12-07T10:34:24;15.75;;;12.18;;
22965;SDS011;11649;48.090;9.754;2022-12-07T10:36:53;17.00;;;11.95;;
22965;SDS011;11649;48.090;9.754;2022-12-07T10:39:33;17.85;;;12.88;;
22965;SDS011;11649;48.090;9.754;2022-12-07T10:42:09;15.45;;;11.57;;
22965;SDS011;11649;48.090;9.754;2022-12-07T10:44:50;16.48;;;11.93;;
22965;SDS011;11649;48.090;9.754;2022-12-07T10:50:17;18.45;;;13.57;;
22965;SDS011;11649;48.090;9.754;2022-12-07T10:58:42;13.75;;;10.38;;
22965;SDS011;11649;48.090;9.754;2022-12-07T11:21:26;15.68;;;13.50;;
22965;SDS011;11649;48.090;9.754;2022-12-07T11:34:59;12.45;;;9.77;;
22965;SDS011;11649;48.090;9.754;2022-12-07T11:37:31;10.25;;;8.05;;
22965;SDS011;11649;48.090;9.754;2022-12-07T11:40:23;13.38;;;9.07;;
22965;SDS011;11649;48.090;9.754;2022-12-07T11:45:55;15.85;;;11.18;;
22965;SDS011;11649;48.090;9.754;2022-12-07T11:51:16;11.55;;;8.57;;
22965;SDS011;11649;48.090;9.754;2022-12-07T11:53:54;10.18;;;7.90;;
22965;SDS011;11649;48.090;9.754;2022-12-07T11:56:29;9.35;;;6.40;;
22965;SDS011;11649;48.090;9.754;2022-12-07T11:59:06;9.15;;;7.85;;
22965;SDS011;11649;48.090;9.754;2022-12-07T12:01:56;9.57;;;7.68;;
22965;SDS011;11649;48.090;9.754;2022-12-07T12:04:51;9.77;;;7.70;;
22965;SDS011;11649;48.090;9.754;2022-12-07T12:07:17;10.80;;;8.45;;
22965;SDS011;11649;48.090;9.754;2022-12-07T12:10:18;12.13;;;7.70;;
22965;SDS011;11649;48.090;9.754;2022-12-07T12:23:48;9.60;;;7.10;;
22965;SDS011;11649;48.090;9.754;2022-12-07T12:26:22;10.85;;;8.18;;
22965;SDS011;11649;48.090;9.754;2022-12-07T12:28:59;10.25;;;8.23;;
22965;SDS011;11649;48.090;9.754;2022-12-07T12:31:33;12.05;;;8.65;;
22965;SDS011;11649;48.090;9.754;2022-12-07T12:40:56;12.10;;;9.15;;
22965;SDS011;11649;48.090;9.754;2022-12-07T12:43:39;12.45;;;9.15;;
22965;SDS011;11649;48.090;9.754;2022-12-07T12:48:56;14.77;;;10.35;;
22965;SDS011;11649;48.090;9.754;2022-12-07T12:51:41;16.98;;;13.52;;
22965;SDS011;11649;48.090;9.754;2022-12-07T12:54:14;11.75;;;9.40;;
22965;SDS011;11649;48.090;9.754;2022-12-07T12:56:43;13.60;;;10.82;;
22965;SDS011;11649;48.090;9.754;2022-12-07T13:04:34;16.77;;;13.02;;
22965;SDS011;11649;48.090;9.754;2022-12-07T13:15:51;11.48;;;8.43;;
22965;SDS011;11649;48.090;9.754;2022-12-07T13:34:35;7.43;;;6.13;;
22965;SDS011;11649;48.090;9.754;2022-12-07T13:40:01;6.22;;;5.43;;
22965;SDS011;11649;48.090;9.754;2022-12-07T13:42:45;7.63;;;6.38;;
22965;SDS011;11649;48.090;9.754;2022-12-07T13:45:26;7.65;;;6.57;;
22965;SDS011;11649;48.090;9.754;2022-12-07T13:50:54;11.15;;;8.55;;
22965;SDS011;11649;48.090;9.754;2022-12-07T13:53:23;6.60;;;5.60;;
22965;SDS011;11649;48.090;9.754;2022-12-07T13:55:50;6.32;;;5.72;;
22965;SDS011;11649;48.090;9.754;2022-12-07T13:58:20;9.35;;;7.10;;
22965;SDS011;11649;48.090;9.754;2022-12-07T14:00:48;5.90;;;5.30;;
22965;SDS011;11649;48.090;9.754;2022-12-07T14:05:43;7.50;;;6.70;;
22965;SDS011;11649;48.090;9.754;2022-12-07T14:10:41;13.18;;;11.77;;
22965;SDS011;11649;48.090;9.754;2022-12-07T14:13:28;8.13;;;7.32;;
22965;SDS011;11649;48.090;9.754;2022-12-07T14:18:54;7.18;;;6.47;;
22965;SDS011;11649;48.090;9.754;2022-12-07T14:21:23;8.18;;;7.15;;
22965;SDS011;11649;48.090;9.754;2022-12-07T14:26:43;12.40;;;9.18;;
22965;SDS011;11649;48.090;9.754;2022-12-07T14:31:57;10.98;;;8.60;;
22965;SDS011;11649;48.090;9.754;2022-12-07T14:34:30;8.45;;;7.03;;
22965;SDS011;11649;48.090;9.754;2022-12-07T14:36:57;16.08;;;12.25;;
22965;SDS011;11649;48.090;9.754;2022-12-07T14:39:24;14.30;;;10.77;;
22965;SDS011;11649;48.090;9.754;2022-12-07T14:41:51;9.63;;;7.80;;
22965;SDS011;11649;48.090;9.754;2022-12-07T14:44:18;11.07;;;7.47;;
22965;SDS011;11649;48.090;9.754;2022-12-07T14:46:51;11.57;;;6.93;;
22965;SDS011;11649;48.090;9.754;2022-12-07T14:49:38;11.70;;;7.10;;
22965;SDS011;11649;48.090;9.754;2022-12-07T14:52:06;10.75;;;7.63;;
22965;SDS011;11649;48.090;9.754;2022-12-07T14:54:59;11.27;;;8.00;;
22965;SDS011;11649;48.090;9.754;2022-12-07T14:57:26;10.52;;;7.93;;
22965;SDS011;11649;48.090;9.754;2022-12-07T14:59:53;13.40;;;9.07;;
22965;SDS011;11649;48.090;9.754;2022-12-07T15:02:19;11.18;;;8.25;;
22965;SDS011;11649;48.090;9.754;2022-12-07T15:04:46;9.40;;;7.72;;
22965;SDS011;11649;48.090;9.754;2022-12-07T15:07:16;13.73;;;7.80;;
22965;SDS011;11649;48.090;9.754;2022-12-07T15:09:47;11.65;;;8.77;;
22965;SDS011;11649;48.090;9.754;2022-12-07T15:12:14;12.70;;;8.85;;
22965;SDS011;11649;48.090;9.754;2022-12-07T15:14:41;13.23;;;9.45;;
22965;SDS011;11649;48.090;9.754;2022-12-07T15:17:09;12.02;;;9.43;;
22965;SDS011;11649;48.090;9.754;2022-12-07T15:22:19;14.45;;;10.52;;
22965;SDS011;11649;48.090;9.754;2022-12-07T15:24:46;14.65;;;10.73;;
22965;SDS011;11649;48.090;9.754;2022-12-07T15:27:13;15.40;;;11.30;;
22965;SDS011;11649;48.090;9.754;2022-12-07T15:29:40;17.15;;;11.30;;
22965;SDS011;11649;48.090;9.754;2022-12-07T15:32:06;18.10;;;12.57;;
22965;SDS011;11649;48.090;9.754;2022-12-07T15:34:33;18.13;;;12.75;;
22965;SDS011;11649;48.090;9.754;2022-12-07T15:37:06;16.27;;;10.63;;
22965;SDS011;11649;48.090;9.754;2022-12-07T15:39:33;16.13;;;11.43;;
22965;SDS011;11649;48.090;9.754;2022-12-07T15:42:02;18.35;;;11.80;;
22965;SDS011;11649;48.090;9.754;2022-12-07T15:44:29;16.30;;;11.77;;
22965;SDS011;11649;48.090;9.754;2022-12-07T15:47:14;20.05;;;13.07;;
22965;SDS011;11649;48.090;9.754;2022-12-07T15:49:41;17.50;;;12.23;;
22965;SDS011;11649;48.090;9.754;2022-12-07T15:52:08;15.75;;;11.45;;
22965;SDS011;11649;48.090;9.754;2022-12-07T15:54:34;20.83;;;13.70;;
22965;SDS011;11649;48.090;9.754;2022-12-07T15:57:01;20.35;;;13.30;;
22965;SDS011;11649;48.090;9.754;2022-12-07T15:59:28;55.72;;;27.02;;
22965;SDS011;11649;48.090;9.754;2022-12-07T16:01:55;48.72;;;25.08;;
22965;SDS011;11649;48.090;9.754;2022-12-07T16:04:23;26.88;;;17.15;;
22965;SDS011;11649;48.090;9.754;2022-12-07T16:06:49;23.38;;;13.45;;
22965;SDS011;11649;48.090;9.754;2022-12-07T16:09:17;17.25;;;11.50;;
22965;SDS011;11649;48.090;9.754;2022-12-07T16:11:44;13.98;;;9.77;;
22965;SDS011;11649;48.090;9.754;2022-12-07T16:14:11;18.45;;;12.25;;
22965;SDS011;11649;48.090;9.754;2022-12-07T16:16:38;21.30;;;13.68;;
22965;SDS011;11649;48.090;9.754;2022-12-07T16:19:08;18.77;;;12.15;;
22965;SDS011;11649;48.090;9.754;2022-12-07T16:21:37;19.75;;;12.52;;
22965;SDS011;11649;48.090;9.754;2022-12-07T16:24:03;19.92;;;12.77;;
22965;SDS011;11649;48.090;9.754;2022-12-07T16:26:31;20.83;;;13.73;;
22965;SDS011;11649;48.090;9.754;2022-12-07T16:28:58;22.90;;;14.45;;
22965;SDS011;11649;48.090;9.754;2022-12-07T16:31:26;21.85;;;14.18;;
22965;SDS011;11649;48.090;9.754;2022-12-07T16:33:54;23.67;;;15.55;;
22965;SDS011;11649;48.090;9.754;2022-12-07T16:36:24;23.90;;;15.70;;
22965;SDS011;11649;48.090;9.754;2022-12-07T16:39:13;23.13;;;13.63;;
22965;SDS011;11649;48.090;9.754;2022-12-07T16:41:40;23.33;;;13.52;;
22965;SDS011;11649;48.090;9.754;2022-12-07T16:44:07;22.80;;;14.80;;
22965;SDS011;11649;48.090;9.754;2022-12-07T16:46:36;17.80;;;11.68;;
22965;SDS011;11649;48.090;9.754;2022-12-07T16:49:03;16.88;;;10.90;;
22965;SDS011;11649;48.090;9.754;2022-12-07T16:51:30;15.65;;;10.88;;
22965;SDS011;11649;48.090;9.754;2022-12-07T16:53:57;16.20;;;11.13;;
22965;SDS011;11649;48.090;9.754;2022-12-07T16:56:25;15.38;;;11.20;;
22965;SDS011;11649;48.090;9.754;2022-12-07T16:58:53;17.27;;;10.95;;
22965;SDS011;11649;48.090;9.754;2022-12-07T17:01:21;17.38;;;12.23;;
22965;SDS011;11649;48.090;9.754;2022-12-07T17:03:49;21.27;;;14.88;;
22965;SDS011;11649;48.090;9.754;2022-12-07T17:06:17;24.75;;;16.48;;
22965;SDS011;11649;48.090;9.754;2022-12-07T17:08:48;27.13;;;17.05;;
22965;SDS011;11649;48.090;9.754;2022-12-07T17:11:17;36.25;;;21.75;;
22965;SDS011;11649;48.090;9.754;2022-12-07T17:13:49;53.80;;;28.45;;
22965;SDS011;11649;48.090;9.754;2022-12-07T17:16:35;45.03;;;25.90;;
22965;SDS011;11649;48.090;9.754;2022-12-07T17:19:07;44.55;;;26.67;;
22965;SDS011;11649;48.090;9.754;2022-12-07T17:21:35;33.65;;;21.42;;
22965;SDS011;11649;48.090;9.754;2022-12-07T17:27:50;39.08;;;25.52;;
22965;SDS011;11649;48.090;9.754;2022-12-07T17:30:17;27.50;;;16.98;;